createdAt,value
2022-12-09T00:00:45.240Z,0.08
2022-12-09T00:01:47.300Z,0.07
2022-12-09T00:02:49.413Z,0.11
2022-12-09T00:03:51.667Z,0.10
2022-12-09T00:04:54.006Z,0.09
2022-12-09T00:05:56.325Z,0.10
2022-12-09T00:06:58.387Z,0.10
2022-12-09T00:08:00.388Z,0.09
2022-12-09T00:09:02.594Z,0.11
2022-12-09T00:10:06.036Z,0.14
2022-12-09T00:11:08.268Z,0.17
2022-12-09T00:12:10.149Z,0.18
2022-12-09T00:13:12.242Z,0.15
2022-12-09T00:14:14.154Z,0.14
2022-12-09T00:15:16.024Z,0.16
2022-12-09T00:16:18.536Z,0.17
2022-12-09T00:17:20.573Z,0.18
2022-12-09T00:18:22.821Z,0.15
2022-12-09T00:19:25.023Z,0.10
2022-12-09T00:20:27.194Z,0.09
2022-12-09T00:21:30.349Z,0.11
2022-12-09T00:22:32.324Z,0.15
2022-12-09T00:23:34.184Z,0.19
2022-12-09T00:24:36.177Z,0.19
2022-12-09T00:25:38.030Z,0.21
2022-12-09T00:26:40.856Z,0.22
2022-12-09T00:27:43.188Z,0.24
2022-12-09T00:28:45.123Z,0.18
2022-12-09T00:29:46.996Z,0.17
2022-12-09T00:30:49.092Z,0.19
2022-12-09T00:31:51.289Z,0.22
2022-12-09T00:32:53.475Z,0.21
2022-12-09T00:33:59.343Z,0.15
2022-12-09T00:35:01.409Z,0.15
2022-12-09T00:36:04.812Z,0.17
2022-12-09T00:37:06.763Z,0.21
2022-12-09T00:38:09.104Z,0.24
2022-12-09T00:39:12.737Z,0.24
2022-12-09T00:40:14.851Z,0.24
2022-12-09T00:41:17.038Z,0.25
2022-12-09T00:42:19.162Z,0.25
2022-12-09T00:43:21.262Z,0.26
2022-12-09T00:44:23.056Z,0.30
2022-12-09T00:45:25.168Z,0.29
2022-12-09T00:46:27.741Z,0.32
2022-12-09T00:47:30.320Z,0.34
2022-12-09T00:48:34.885Z,0.33
2022-12-09T00:49:36.792Z,0.30
2022-12-09T00:50:38.658Z,0.31
2022-12-09T00:51:40.766Z,0.30
2022-12-09T00:52:42.987Z,0.31
2022-12-09T00:53:45.057Z,0.32
2022-12-09T00:54:47.222Z,0.34
2022-12-09T00:55:49.274Z,0.31
2022-12-09T00:56:51.188Z,0.31
2022-12-09T00:57:53.112Z,0.31
2022-12-09T00:58:55.880Z,0.32
2022-12-09T00:59:57.742Z,0.32
2022-12-09T01:00:59.789Z,0.35
2022-12-09T01:02:01.715Z,0.36
2022-12-09T01:03:03.773Z,0.38
2022-12-09T01:04:09.006Z,0.32
2022-12-09T01:05:11.234Z,0.24
2022-12-09T01:06:17.635Z,0.15
2022-12-09T01:07:19.533Z,0.14
2022-12-09T01:08:21.565Z,0.16
2022-12-09T01:09:23.641Z,0.14
2022-12-09T01:10:25.570Z,0.14
2022-12-09T01:11:28.935Z,0.15
2022-12-09T01:12:30.904Z,0.18
2022-12-09T01:13:32.838Z,0.18
2022-12-09T01:14:35.535Z,0.21
2022-12-09T01:15:37.527Z,0.19
2022-12-09T01:16:39.682Z,0.21
2022-12-09T01:17:41.667Z,0.24
2022-12-09T01:18:44.068Z,0.24
2022-12-09T01:19:47.466Z,0.23
2022-12-09T01:20:56.469Z,0.24
2022-12-09T01:21:58.322Z,0.27
2022-12-09T01:23:00.781Z,0.29
2022-12-09T01:24:06.301Z,0.32
2022-12-09T01:25:08.959Z,0.34
2022-12-09T01:26:11.332Z,0.32
2022-12-09T01:27:13.485Z,0.34
2022-12-09T01:28:15.419Z,0.32
2022-12-09T01:29:17.490Z,0.33
2022-12-09T01:30:19.815Z,0.32
2022-12-09T01:31:23.427Z,0.33
2022-12-09T01:32:25.799Z,0.34
2022-12-09T01:33:28.870Z,0.34
2022-12-09T01:34:30.706Z,0.33
2022-12-09T01:35:32.612Z,0.32
2022-12-09T01:36:34.899Z,0.33
2022-12-09T01:37:37.521Z,0.34
2022-12-09T01:38:40.175Z,0.35
2022-12-09T01:39:42.634Z,0.38
2022-12-09T01:40:47.823Z,0.39
2022-12-09T01:41:52.414Z,0.40
2022-12-09T01:42:54.269Z,0.37
2022-12-09T01:44:14.898Z,0.38
2022-12-09T01:45:23.544Z,0.37
2022-12-09T01:46:26.001Z,0.37
2022-12-09T01:47:28.073Z,0.36
2022-12-09T01:48:35.635Z,0.35
2022-12-09T01:49:41.941Z,0.37
2022-12-09T01:50:52.988Z,0.37
2022-12-09T01:52:21.337Z,0.38
2022-12-09T01:53:25.123Z,0.41
2022-12-09T01:54:27.328Z,0.40
2022-12-09T01:55:29.572Z,0.35
2022-12-09T01:56:35.959Z,0.32
2022-12-09T01:57:39.240Z,0.31
2022-12-09T01:58:41.668Z,0.30
2022-12-09T01:59:44.889Z,0.30
2022-12-09T02:00:47.553Z,0.34
2022-12-09T02:01:51.365Z,0.35
2022-12-09T02:02:55.126Z,0.33
2022-12-09T02:03:57.647Z,0.32
2022-12-09T02:04:59.973Z,0.34
2022-12-09T02:06:01.975Z,0.33
2022-12-09T02:07:06.243Z,0.34
2022-12-09T02:08:13.440Z,0.36
2022-12-09T02:09:15.505Z,0.37
2022-12-09T02:10:18.676Z,0.40
2022-12-09T02:11:23.605Z,0.42
2022-12-09T02:12:31.476Z,0.44
2022-12-09T02:13:40.786Z,0.38
2022-12-09T02:14:42.694Z,0.39
2022-12-09T02:15:49.161Z,0.39
2022-12-09T02:16:54.521Z,0.39
2022-12-09T02:18:04.615Z,0.42
2022-12-09T02:19:24.509Z,0.43
2022-12-09T02:20:30.539Z,0.45
2022-12-09T02:21:37.171Z,0.45
2022-12-09T02:22:43.408Z,0.46
2022-12-09T02:23:51.855Z,0.45
2022-12-09T02:24:56.838Z,0.43
2022-12-09T02:26:16.958Z,0.44
2022-12-09T02:27:20.836Z,0.43
2022-12-09T02:28:28.990Z,0.44
2022-12-09T02:29:45.589Z,0.44
2022-12-09T02:31:11.509Z,0.45
2022-12-09T02:32:13.994Z,0.42
2022-12-09T02:33:34.558Z,0.39
2022-12-09T02:34:41.062Z,0.35
2022-12-09T02:35:51.865Z,0.35
2022-12-09T02:37:12.582Z,0.29
2022-12-09T02:38:25.944Z,0.31
2022-12-09T02:39:33.016Z,0.33
2022-12-09T02:40:39.313Z,0.30
2022-12-09T02:41:44.596Z,0.29
2022-12-09T02:42:48.676Z,0.32
2022-12-09T02:43:54.363Z,0.33
2022-12-09T02:44:57.870Z,0.35
2022-12-09T02:46:01.672Z,0.34
2022-12-09T02:47:05.588Z,0.36
2022-12-09T02:48:08.515Z,0.36
2022-12-09T02:49:11.575Z,0.36
2022-12-09T02:50:15.649Z,0.35
2022-12-09T02:51:18.931Z,0.30
2022-12-09T02:52:23.053Z,0.28
2022-12-09T02:53:26.482Z,0.26
2022-12-09T02:54:30.670Z,0.25
2022-12-09T02:55:33.614Z,0.27
2022-12-09T02:56:35.943Z,0.30
2022-12-09T02:57:39.392Z,0.31
2022-12-09T02:58:41.513Z,0.34
2022-12-09T02:59:43.594Z,0.35
2022-12-09T03:00:45.577Z,0.35
2022-12-09T03:02:06.515Z,0.33
2022-12-09T03:03:14.330Z,0.29
2022-12-09T03:04:21.971Z,0.28
2022-12-09T03:05:31.481Z,0.31
2022-12-09T03:06:41.456Z,0.34
2022-12-09T03:07:52.474Z,0.36
2022-12-09T03:09:04.275Z,0.36
2022-12-09T03:10:13.042Z,0.36
2022-12-09T03:11:19.310Z,0.37
2022-12-09T03:12:22.007Z,0.35
2022-12-09T03:13:27.291Z,0.34
2022-12-09T03:14:33.619Z,0.36
2022-12-09T03:15:37.786Z,0.38
2022-12-09T03:16:47.143Z,0.40
2022-12-09T03:17:49.596Z,0.36
2022-12-09T03:18:54.962Z,0.33
2022-12-09T03:19:59.239Z,0.31
2022-12-09T03:21:03.990Z,0.30
2022-12-09T03:22:07.929Z,0.31
2022-12-09T03:23:10.573Z,0.30
2022-12-09T03:24:14.289Z,0.30
2022-12-09T03:25:20.799Z,0.28
2022-12-09T03:26:26.476Z,0.32
2022-12-09T03:27:54.772Z,0.35
2022-12-09T03:28:58.560Z,0.34
2022-12-09T03:30:02.617Z,0.26
2022-12-09T03:31:06.856Z,0.18
2022-12-09T03:32:11.829Z,0.22
2022-12-09T03:33:15.956Z,0.25
2022-12-09T03:34:20.682Z,0.27
2022-12-09T03:35:25.338Z,0.32
2022-12-09T03:36:29.382Z,0.36
2022-12-09T03:37:32.234Z,0.36
2022-12-09T03:38:37.295Z,0.37
2022-12-09T03:39:40.811Z,0.40
2022-12-09T03:40:43.423Z,0.44
2022-12-09T03:41:52.324Z,0.46
2022-12-09T03:43:13.395Z,0.42
2022-12-09T03:44:21.999Z,0.44
2022-12-09T03:45:25.009Z,0.46
2022-12-09T03:46:29.226Z,0.48
2022-12-09T03:47:31.726Z,0.50
2022-12-09T03:48:34.102Z,0.52
2022-12-09T03:49:37.256Z,0.53
2022-12-09T03:50:48.571Z,0.48
2022-12-09T03:52:09.423Z,0.44
2022-12-09T03:53:16.067Z,0.41
2022-12-09T03:54:30.943Z,0.40
2022-12-09T03:55:43.845Z,0.44
2022-12-09T03:56:46.864Z,0.48
2022-12-09T03:57:51.522Z,0.52
2022-12-09T03:58:54.644Z,0.55
2022-12-09T03:59:58.747Z,0.56
2022-12-09T04:01:01.968Z,0.59
2022-12-09T04:02:07.572Z,0.57
2022-12-09T04:03:11.115Z,0.53
2022-12-09T04:04:13.182Z,0.51
2022-12-09T04:05:15.640Z,0.51
2022-12-09T04:06:17.827Z,0.51
2022-12-09T04:07:21.650Z,0.48
2022-12-09T04:08:23.524Z,0.48
2022-12-09T04:09:25.986Z,0.49
2022-12-09T04:10:28.285Z,0.52
2022-12-09T04:11:31.108Z,0.56
2022-12-09T04:12:33.332Z,0.57
2022-12-09T04:16:28.022Z,0.57
2022-12-09T04:17:32.060Z,0.59
2022-12-09T04:18:37.224Z,0.60
2022-12-09T04:19:39.753Z,0.58
2022-12-09T04:20:43.559Z,0.59
2022-12-09T04:21:46.051Z,0.63
2022-12-09T04:22:48.546Z,0.63
2022-12-09T04:23:51.091Z,0.65
2022-12-09T04:24:55.467Z,0.65
2022-12-09T04:25:59.362Z,0.66
2022-12-09T04:27:02.259Z,0.68
2022-12-09T04:28:05.855Z,0.69
2022-12-09T04:29:10.813Z,0.71
2022-12-09T04:30:14.720Z,0.72
2022-12-09T04:31:18.916Z,0.73
2022-12-09T04:32:23.093Z,0.68
2022-12-09T04:33:26.243Z,0.66
2022-12-09T04:34:29.020Z,0.64
2022-12-09T04:35:31.923Z,0.62
2022-12-09T04:36:36.006Z,0.60
2022-12-09T04:37:39.116Z,0.62
2022-12-09T04:38:42.914Z,0.64
2022-12-09T04:39:46.185Z,0.64
2022-12-09T04:40:49.521Z,0.61
2022-12-09T04:41:53.121Z,0.59
2022-12-09T04:42:56.491Z,0.57
2022-12-09T04:43:59.540Z,0.57
2022-12-09T04:45:03.037Z,0.58
2022-12-09T04:46:07.505Z,0.57
2022-12-09T04:47:10.744Z,0.57
2022-12-09T04:48:14.669Z,0.54
2022-12-09T04:49:17.813Z,0.54
2022-12-09T04:50:21.771Z,0.55
2022-12-09T04:51:24.832Z,0.56
2022-12-09T04:52:28.276Z,0.59
2022-12-09T04:53:31.671Z,0.59
2022-12-09T04:54:34.832Z,0.60
2022-12-09T04:55:37.931Z,0.63
2022-12-09T04:56:41.600Z,0.65
2022-12-09T04:57:45.091Z,0.64
2022-12-09T04:58:49.235Z,0.65
2022-12-09T04:59:52.446Z,0.67
2022-12-09T05:00:56.016Z,0.68
2022-12-09T05:01:59.370Z,0.68
2022-12-09T05:03:03.117Z,0.70
2022-12-09T05:04:07.953Z,0.70
2022-12-09T05:05:13.107Z,0.71
2022-12-09T05:06:16.347Z,0.70
2022-12-09T05:07:19.670Z,0.68
2022-12-09T05:08:29.827Z,0.62
2022-12-09T05:09:35.159Z,0.61
2022-12-09T05:10:38.285Z,0.62
2022-12-09T05:11:41.603Z,0.62
2022-12-09T05:12:44.848Z,0.63
2022-12-09T05:13:49.211Z,0.63
2022-12-09T05:14:53.498Z,0.63
2022-12-09T05:16:01.990Z,0.64
2022-12-09T05:17:05.261Z,0.65
2022-12-09T05:18:08.806Z,0.66
2022-12-09T05:19:15.093Z,0.69
2022-12-09T05:20:19.435Z,0.69
2022-12-09T05:21:23.130Z,0.70
2022-12-09T05:22:26.621Z,0.72
2022-12-09T05:23:30.866Z,0.73
2022-12-09T05:24:34.373Z,0.73
2022-12-09T05:25:37.891Z,0.68
2022-12-09T05:26:41.779Z,0.63
2022-12-09T05:27:45.047Z,0.56
2022-12-09T05:28:48.147Z,0.56
2022-12-09T05:29:51.533Z,0.59
2022-12-09T05:30:55.985Z,0.63
2022-12-09T05:32:00.890Z,0.66
2022-12-09T05:33:06.010Z,0.68
2022-12-09T05:34:09.261Z,0.71
2022-12-09T05:35:12.638Z,0.72
2022-12-09T05:36:17.063Z,0.73
2022-12-09T05:37:20.652Z,0.71
2022-12-09T05:38:24.182Z,0.68
2022-12-09T05:39:27.400Z,0.68
2022-12-09T05:40:30.909Z,0.65
2022-12-09T05:41:33.949Z,0.62
2022-12-09T05:42:41.355Z,0.58
2022-12-09T05:43:45.807Z,0.54
2022-12-09T05:44:49.903Z,0.49
2022-12-09T05:45:53.546Z,0.46
2022-12-09T05:46:56.889Z,0.45
2022-12-09T05:48:00.568Z,0.47
2022-12-09T05:49:04.127Z,0.48
2022-12-09T05:50:08.769Z,0.46
2022-12-09T05:51:18.137Z,0.43
2022-12-09T05:52:21.187Z,0.41
2022-12-09T05:53:24.257Z,0.40
2022-12-09T05:54:28.013Z,0.44
2022-12-09T05:55:31.531Z,0.47
2022-12-09T05:56:34.859Z,0.49
2022-12-09T05:57:38.633Z,0.51
2022-12-09T05:58:42.660Z,0.53
2022-12-09T05:59:46.542Z,0.54
2022-12-09T06:00:49.682Z,0.53
2022-12-09T06:01:52.819Z,0.51
2022-12-09T06:02:56.099Z,0.47
2022-12-09T06:03:59.715Z,0.44
2022-12-09T06:05:04.068Z,0.43
2022-12-09T06:06:12.460Z,0.44
2022-12-09T06:07:37.085Z,0.47
2022-12-09T06:09:16.153Z,0.52
2022-12-09T06:10:19.821Z,0.45
2022-12-09T06:11:23.286Z,0.44
2022-12-09T06:12:26.842Z,0.44
2022-12-09T06:13:30.415Z,0.46
2022-12-09T06:14:33.714Z,0.47
2022-12-09T06:15:37.379Z,0.51
2022-12-09T06:16:40.769Z,0.53
2022-12-09T06:17:44.787Z,0.54
2022-12-09T06:18:48.574Z,0.50
2022-12-09T06:19:51.795Z,0.49
2022-12-09T06:20:55.772Z,0.48
2022-12-09T06:22:00.760Z,0.47
2022-12-09T06:23:04.258Z,0.44
2022-12-09T06:24:07.982Z,0.41
2022-12-09T06:25:11.529Z,0.40
2022-12-09T06:26:19.011Z,0.40
2022-12-09T06:27:23.375Z,0.41
2022-12-09T06:28:26.767Z,0.41
2022-12-09T06:29:30.156Z,0.44
2022-12-09T06:30:33.769Z,0.43
2022-12-09T06:31:37.222Z,0.43
2022-12-09T06:32:40.858Z,0.42
2022-12-09T06:33:54.776Z,0.43
2022-12-09T06:35:02.902Z,0.45
2022-12-09T06:36:06.554Z,0.48
2022-12-09T06:37:09.859Z,0.49
2022-12-09T06:38:13.024Z,0.51
2022-12-09T06:39:17.745Z,0.51
2022-12-09T06:40:23.476Z,0.50
2022-12-09T06:41:26.964Z,0.52
2022-12-09T06:42:30.210Z,0.54
2022-12-09T06:43:33.991Z,0.56
2022-12-09T06:44:38.931Z,0.56
2022-12-09T06:45:43.429Z,0.58
2022-12-09T06:46:47.881Z,0.59
2022-12-09T06:47:52.108Z,0.60
2022-12-09T06:48:56.664Z,0.62
2022-12-09T06:50:07.012Z,0.63
2022-12-09T06:51:11.228Z,0.62
2022-12-09T06:52:15.491Z,0.57
2022-12-09T06:53:19.376Z,0.56
2022-12-09T06:54:22.488Z,0.58
2022-12-09T06:55:25.813Z,0.61
2022-12-09T06:56:29.528Z,0.64
2022-12-09T06:57:32.881Z,0.63
2022-12-09T06:58:36.700Z,0.66
2022-12-09T06:59:41.547Z,0.67
2022-12-09T07:00:45.153Z,0.68
2022-12-09T07:01:48.862Z,0.70
2022-12-09T07:02:53.542Z,0.71
2022-12-09T07:03:58.243Z,0.72
2022-12-09T07:05:01.807Z,0.73
2022-12-09T07:06:05.370Z,0.74
2022-12-09T07:07:11.185Z,0.74
2022-12-09T07:08:14.801Z,0.74
2022-12-09T07:09:19.751Z,0.76
2022-12-09T07:10:23.842Z,0.73
2022-12-09T07:11:29.126Z,0.66
2022-12-09T07:12:32.833Z,0.61
2022-12-09T07:13:36.243Z,0.63
2022-12-09T07:14:39.889Z,0.65
2022-12-09T07:15:43.286Z,0.67
2022-12-09T07:16:48.000Z,0.66
2022-12-09T07:17:51.494Z,0.61
2022-12-09T07:18:56.419Z,0.62
2022-12-09T07:20:06.339Z,0.66
2022-12-09T07:21:15.745Z,0.68
2022-12-09T07:22:19.157Z,0.70
2022-12-09T07:23:22.606Z,0.69
2022-12-09T07:24:27.239Z,0.66
2022-12-09T07:25:30.752Z,0.67
2022-12-09T07:26:34.516Z,0.69
2022-12-09T07:27:38.125Z,0.66
2022-12-09T07:28:43.580Z,0.58
2022-12-09T07:29:48.043Z,0.60
2022-12-09T07:30:51.356Z,0.64
2022-12-09T07:31:54.439Z,0.66
2022-12-09T07:32:58.355Z,0.60
2022-12-09T07:34:02.041Z,0.58
2022-12-09T07:35:06.163Z,0.58
2022-12-09T07:36:09.649Z,0.63
2022-12-09T07:37:12.738Z,0.63
2022-12-09T07:38:15.862Z,0.65
2022-12-09T07:39:19.411Z,0.64
2022-12-09T07:40:22.793Z,0.64
2022-12-09T07:41:26.621Z,0.65
2022-12-09T07:42:31.881Z,0.69
2022-12-09T07:43:36.019Z,0.72
2022-12-09T07:45:39.481Z,0.75
2022-12-09T07:46:43.025Z,0.74
2022-12-09T07:47:46.778Z,0.78
2022-12-09T07:48:51.151Z,0.78
2022-12-09T07:50:01.433Z,0.76
2022-12-09T07:51:11.470Z,0.75
2022-12-09T07:52:14.728Z,0.78
2022-12-09T07:53:18.240Z,0.82
2022-12-09T07:54:22.003Z,0.86
2022-12-09T07:55:25.156Z,0.85
2022-12-09T07:56:30.909Z,0.84
2022-12-09T07:57:35.341Z,0.85
2022-12-09T07:58:41.745Z,0.88
2022-12-09T07:59:45.778Z,0.92
2022-12-09T08:00:49.668Z,0.91
2022-12-09T08:01:52.957Z,0.90
2022-12-09T08:02:56.972Z,0.91
2022-12-09T08:04:00.468Z,0.96
2022-12-09T08:05:05.518Z,0.93
2022-12-09T08:06:09.260Z,0.91
2022-12-09T08:07:13.712Z,0.94
2022-12-09T08:08:17.750Z,0.92
2022-12-09T08:09:21.988Z,0.94
2022-12-09T08:10:25.407Z,0.96
2022-12-09T08:11:29.663Z,0.96
2022-12-09T08:12:33.260Z,1.02
2022-12-09T08:13:37.990Z,1.07
2022-12-09T08:14:41.543Z,1.05
2022-12-09T08:15:45.194Z,1.05
2022-12-09T08:16:48.497Z,1.04
2022-12-09T08:17:51.775Z,1.05
2022-12-09T08:18:57.143Z,1.08
2022-12-09T08:20:03.020Z,1.09
2022-12-09T08:21:11.753Z,1.12
2022-12-09T08:22:15.327Z,1.14
2022-12-09T08:23:18.706Z,1.14
2022-12-09T08:24:24.948Z,1.13
2022-12-09T08:25:28.653Z,1.16
2022-12-09T08:26:33.228Z,1.18
2022-12-09T08:27:39.619Z,1.21
2022-12-09T08:28:43.006Z,1.16
2022-12-09T08:29:46.773Z,1.14
2022-12-09T08:30:50.482Z,1.17
2022-12-09T08:31:55.244Z,1.23
2022-12-09T08:32:58.970Z,1.27
2022-12-09T08:34:03.810Z,1.23
2022-12-09T08:35:11.201Z,1.18
2022-12-09T08:36:15.869Z,1.14
2022-12-09T08:37:20.725Z,1.11
2022-12-09T08:38:25.143Z,1.15
2022-12-09T08:39:28.357Z,1.19
2022-12-09T08:40:33.035Z,1.17
2022-12-09T08:41:36.577Z,1.20
2022-12-09T08:42:39.915Z,1.19
2022-12-09T08:43:42.828Z,1.22
2022-12-09T08:44:45.296Z,1.23
2022-12-09T08:45:47.710Z,1.24
2022-12-09T08:46:52.117Z,1.26
2022-12-09T08:47:56.412Z,1.29
2022-12-09T08:48:59.318Z,1.29
2022-12-09T08:50:02.036Z,1.28
2022-12-09T08:51:05.129Z,1.28
2022-12-09T08:52:07.294Z,1.24
2022-12-09T08:53:09.330Z,1.27
2022-12-09T08:54:11.406Z,1.32
2022-12-09T08:55:13.960Z,1.38
2022-12-09T08:56:16.199Z,1.38
2022-12-09T08:57:22.189Z,1.33
2022-12-09T08:58:24.390Z,1.34
2022-12-09T08:59:26.336Z,1.36
2022-12-09T09:00:28.384Z,1.36
2022-12-09T09:01:36.001Z,1.35
2022-12-09T09:02:38.382Z,1.36
2022-12-09T09:03:40.817Z,1.40
2022-12-09T09:04:43.379Z,1.39
2022-12-09T09:05:45.887Z,1.39
2022-12-09T09:06:50.559Z,1.40
2022-12-09T09:07:52.825Z,1.44
2022-12-09T09:08:58.353Z,1.42
2022-12-09T09:10:01.537Z,1.43
2022-12-09T09:11:10.644Z,1.45
2022-12-09T09:12:12.849Z,1.46
2022-12-09T09:13:14.992Z,1.42
2022-12-09T09:14:18.341Z,1.38
2022-12-09T09:15:20.760Z,1.37
2022-12-09T09:16:24.099Z,1.37
2022-12-09T09:17:26.590Z,1.39
2022-12-09T09:18:28.545Z,1.44
2022-12-09T09:19:32.013Z,1.50
2022-12-09T09:20:34.386Z,1.53
2022-12-09T09:21:36.853Z,1.57
2022-12-09T09:22:39.012Z,1.61
2022-12-09T09:23:42.026Z,1.66
2022-12-09T09:24:44.964Z,1.70
2022-12-09T09:25:46.980Z,1.75
2022-12-09T09:26:50.157Z,1.75
2022-12-09T09:27:52.377Z,1.75
2022-12-09T09:28:55.709Z,1.72
2022-12-09T09:29:57.671Z,1.69
2022-12-09T09:31:04.295Z,1.69
2022-12-09T09:32:06.579Z,1.67
2022-12-09T09:33:09.464Z,1.63
2022-12-09T09:34:11.656Z,1.62
2022-12-09T09:35:14.633Z,1.62
2022-12-09T09:36:20.999Z,1.62
2022-12-09T09:37:23.253Z,1.65
2022-12-09T09:38:25.738Z,1.67
2022-12-09T09:39:28.079Z,1.73
2022-12-09T09:40:31.083Z,1.73
2022-12-09T09:41:51.817Z,1.73
2022-12-09T09:42:56.245Z,1.74
2022-12-09T09:43:58.394Z,1.78
2022-12-09T09:45:06.169Z,1.84
2022-12-09T09:46:17.511Z,1.88
2022-12-09T09:47:27.793Z,1.93
2022-12-09T09:48:33.426Z,1.95
2022-12-09T09:49:37.472Z,1.89
2022-12-09T09:50:39.630Z,1.85
2022-12-09T09:51:43.408Z,1.85
2022-12-09T09:52:45.371Z,1.86
2022-12-09T09:53:50.495Z,1.85
2022-12-09T09:54:53.283Z,1.82
2022-12-09T09:56:00.138Z,1.80
2022-12-09T09:57:07.815Z,1.80
2022-12-09T09:58:39.024Z,1.82
2022-12-09T09:59:48.315Z,1.85
2022-12-09T10:01:10.629Z,1.91
2022-12-09T10:02:13.153Z,1.95
2022-12-09T10:03:33.035Z,1.98
2022-12-09T10:04:38.436Z,2.00
2022-12-09T10:05:40.514Z,2.03
2022-12-09T10:07:07.943Z,2.00
2022-12-09T10:08:19.920Z,2.00
2022-12-09T10:09:25.107Z,2.01
2022-12-09T10:10:37.473Z,2.02
2022-12-09T10:11:44.339Z,2.05
2022-12-09T10:12:49.622Z,2.04
2022-12-09T10:14:00.814Z,2.06
2022-12-09T10:15:18.994Z,2.08
2022-12-09T10:16:21.044Z,2.10
2022-12-09T10:17:37.416Z,2.10
2022-12-09T10:18:43.200Z,2.09
2022-12-09T10:19:50.360Z,2.08
2022-12-09T10:20:52.902Z,2.08
2022-12-09T10:21:56.404Z,2.09
2022-12-09T10:23:03.491Z,2.08
2022-12-09T10:24:16.589Z,2.10
2022-12-09T10:25:21.357Z,2.12
2022-12-09T10:26:25.710Z,2.10
2022-12-09T10:27:27.924Z,2.08
2022-12-09T10:28:33.953Z,2.05
2022-12-09T10:29:47.076Z,2.04
2022-12-09T10:30:53.555Z,2.00
2022-12-09T10:31:56.077Z,2.04
2022-12-09T10:32:58.734Z,2.08
2022-12-09T10:34:01.014Z,2.09
2022-12-09T10:35:12.326Z,2.10
2022-12-09T10:36:24.271Z,2.11
2022-12-09T10:37:27.144Z,2.14
2022-12-09T10:38:30.945Z,2.13
2022-12-09T10:39:34.220Z,2.14
2022-12-09T10:40:51.152Z,2.15
2022-12-09T10:42:12.316Z,2.21
2022-12-09T10:43:35.690Z,2.24
2022-12-09T10:44:38.331Z,2.24
2022-12-09T10:47:26.086Z,2.17
2022-12-09T10:48:32.685Z,2.19
2022-12-09T10:49:36.123Z,2.20
2022-12-09T10:50:48.455Z,2.18
2022-12-09T10:51:52.467Z,2.17
2022-12-09T10:52:55.453Z,2.22
2022-12-09T10:54:06.947Z,2.27
2022-12-09T10:55:21.524Z,2.32
2022-12-09T10:56:25.879Z,2.34
2022-12-09T10:57:29.683Z,2.30
2022-12-09T10:58:32.568Z,2.32
2022-12-09T10:59:35.981Z,2.33
2022-12-09T11:00:37.871Z,2.35
2022-12-09T11:01:51.060Z,2.36
2022-12-09T11:02:54.915Z,2.37
2022-12-09T11:03:57.927Z,2.40
2022-12-09T11:05:21.759Z,2.40
2022-12-09T11:06:29.436Z,2.36
2022-12-09T11:07:32.262Z,2.34
2022-12-09T11:08:35.243Z,2.36
2022-12-09T11:09:46.756Z,2.38
2022-12-09T11:10:50.175Z,2.42
2022-12-09T11:11:52.319Z,2.42
2022-12-09T11:12:57.920Z,2.37
2022-12-09T11:14:00.288Z,2.36
2022-12-09T11:15:04.446Z,2.37
2022-12-09T11:16:08.264Z,2.40
2022-12-09T11:17:22.617Z,2.42
2022-12-09T11:18:29.321Z,2.43
2022-12-09T11:19:34.075Z,2.38
2022-12-09T11:20:36.690Z,2.36
2022-12-09T11:21:39.557Z,2.40
2022-12-09T11:22:43.267Z,2.43
2022-12-09T11:24:02.514Z,2.44
2022-12-09T11:25:15.771Z,2.42
2022-12-09T11:26:25.891Z,2.44
2022-12-09T11:27:32.605Z,2.44
2022-12-09T11:28:36.773Z,2.47
2022-12-09T11:29:39.078Z,2.49
2022-12-09T11:31:27.944Z,2.51
2022-12-09T11:32:18.157Z,2.51
2022-12-09T11:33:31.670Z,2.52
2022-12-09T11:34:34.347Z,2.53
2022-12-09T11:35:45.882Z,2.55
2022-12-09T11:36:52.689Z,2.51
2022-12-09T11:37:55.093Z,2.52
2022-12-09T11:39:17.126Z,2.52
2022-12-09T11:40:20.228Z,2.48
2022-12-09T11:41:41.610Z,2.46
2022-12-09T11:42:43.528Z,2.48
2022-12-09T11:43:48.241Z,2.49
2022-12-09T11:44:49.944Z,2.48
2022-12-09T11:45:51.852Z,2.49
2022-12-09T11:46:58.844Z,2.51
2022-12-09T11:48:29.918Z,2.53
2022-12-09T11:49:30.138Z,2.54
2022-12-09T11:50:33.586Z,2.53
2022-12-09T11:51:40.650Z,2.53
2022-12-09T11:52:42.918Z,2.55
2022-12-09T11:53:46.190Z,2.53
2022-12-09T11:55:06.559Z,2.56
2022-12-09T11:56:13.857Z,2.55
2022-12-09T11:57:35.533Z,2.56
2022-12-09T11:58:40.876Z,2.58
2022-12-09T11:59:48.905Z,2.59
2022-12-09T12:00:52.886Z,2.61
2022-12-09T12:01:54.697Z,2.61
2022-12-09T12:03:02.528Z,2.62
2022-12-09T12:04:12.076Z,2.57
2022-12-09T12:05:23.207Z,2.58
2022-12-09T12:06:26.765Z,2.57
2022-12-09T12:07:45.604Z,2.55
2022-12-09T12:08:49.668Z,2.50
2022-12-09T12:09:56.357Z,2.42
2022-12-09T12:11:03.874Z,2.46
2022-12-09T12:12:25.496Z,2.50
2022-12-09T12:13:37.743Z,2.52
2022-12-09T12:14:43.459Z,2.50
2022-12-09T12:15:45.208Z,2.46
2022-12-09T12:16:58.244Z,2.38
2022-12-09T12:18:03.552Z,2.35
2022-12-09T12:19:24.051Z,2.37
2022-12-09T12:20:46.108Z,2.41
2022-12-09T12:22:06.709Z,2.43
2022-12-09T12:23:19.766Z,2.45
2022-12-09T12:24:53.741Z,2.48
2022-12-09T12:26:10.395Z,2.54
2022-12-09T12:27:14.625Z,2.53
2022-12-09T12:28:36.754Z,2.56
2022-12-09T12:30:04.738Z,2.59
2022-12-09T12:31:25.053Z,2.64
2022-12-09T12:32:29.708Z,2.68
2022-12-09T12:34:07.965Z,2.68
2022-12-09T12:35:11.845Z,2.71
2022-12-09T12:36:32.335Z,2.74
2022-12-09T12:37:34.110Z,2.72
2022-12-09T12:38:47.075Z,2.72
2022-12-09T12:39:48.901Z,2.71
2022-12-09T12:40:55.489Z,2.72
2022-12-09T12:42:20.379Z,2.73
2022-12-09T12:43:59.462Z,2.70
2022-12-09T12:45:33.245Z,2.71
2022-12-09T12:46:43.882Z,2.59
2022-12-09T12:47:45.593Z,2.58
2022-12-09T12:49:06.272Z,2.60
2022-12-09T12:50:14.863Z,2.64
2022-12-09T12:51:25.489Z,2.64
2022-12-09T12:52:57.353Z,2.67
2022-12-09T12:54:13.118Z,2.71
2022-12-09T12:55:30.471Z,2.75
2022-12-09T12:56:38.326Z,2.75
2022-12-09T12:57:44.796Z,2.75
2022-12-09T12:58:55.966Z,2.77
2022-12-09T13:00:07.574Z,2.79
2022-12-09T13:01:18.616Z,2.83
2022-12-09T13:02:29.377Z,2.84
2022-12-09T13:03:39.040Z,2.85
2022-12-09T13:04:47.330Z,2.88
2022-12-09T13:05:51.619Z,2.89
2022-12-09T13:07:06.680Z,2.89
2022-12-09T13:08:11.406Z,2.88
2022-12-09T13:09:18.663Z,2.88
2022-12-09T13:10:29.431Z,2.85
2022-12-09T13:11:31.191Z,2.80
2022-12-09T13:12:54.986Z,2.77
2022-12-09T13:13:59.411Z,2.75
2022-12-09T13:15:02.330Z,2.70
2022-12-09T13:16:22.794Z,2.71
2022-12-09T13:17:27.657Z,2.76
2022-12-09T13:18:32.141Z,2.79
2022-12-09T13:19:38.449Z,2.82
2022-12-09T13:20:40.158Z,2.86
2022-12-09T13:21:44.168Z,2.87
2022-12-09T13:22:48.621Z,2.87
2022-12-09T13:23:53.212Z,2.90
2022-12-09T13:25:03.224Z,2.92
2022-12-09T13:26:26.719Z,2.93
2022-12-09T13:27:51.417Z,2.94
2022-12-09T13:28:59.191Z,2.95
2022-12-09T13:30:18.704Z,2.96
2022-12-09T13:31:26.327Z,2.97
2022-12-09T13:32:40.320Z,2.96
2022-12-09T13:33:42.069Z,2.95
2022-12-09T13:34:51.553Z,2.94
2022-12-09T13:35:56.315Z,2.94
2022-12-09T13:36:58.133Z,2.94
2022-12-09T13:38:00.577Z,2.95
2022-12-09T13:39:02.468Z,2.94
2022-12-09T13:40:23.030Z,2.96
2022-12-09T13:41:27.962Z,2.98
2022-12-09T13:42:48.090Z,2.99
2022-12-09T13:43:49.921Z,3.02
2022-12-09T13:45:04.022Z,3.02
2022-12-09T13:46:05.917Z,3.02
2022-12-09T13:47:28.261Z,2.99
2022-12-09T13:48:29.949Z,2.97
2022-12-09T13:49:32.707Z,2.99
2022-12-09T13:50:43.809Z,3.03
2022-12-09T13:51:54.333Z,3.05
2022-12-09T13:52:58.091Z,3.06
2022-12-09T13:53:59.813Z,3.06
2022-12-09T13:55:01.546Z,3.08
2022-12-09T13:56:06.275Z,3.09
2022-12-09T13:57:17.214Z,3.11
2022-12-09T13:58:34.358Z,3.12
2022-12-09T13:59:54.146Z,3.13
2022-12-09T14:01:06.813Z,3.13
2022-12-09T14:02:08.584Z,3.14
2022-12-09T14:03:26.994Z,3.14
2022-12-09T14:04:34.066Z,3.14
2022-12-09T14:05:37.272Z,3.12
2022-12-09T14:06:45.121Z,3.09
2022-12-09T14:07:49.077Z,3.09
2022-12-09T14:08:53.270Z,3.10
2022-12-09T14:09:56.505Z,3.10
2022-12-09T14:10:58.498Z,3.12
2022-12-09T14:12:01.247Z,3.12
2022-12-09T14:13:04.898Z,3.12
2022-12-09T14:14:25.313Z,3.13
2022-12-09T14:15:28.780Z,3.14
2022-12-09T14:16:30.597Z,3.15
2022-12-09T14:17:36.335Z,3.18
2022-12-09T14:18:40.056Z,3.18
2022-12-09T14:19:52.172Z,3.16
2022-12-09T14:21:12.386Z,3.17
2022-12-09T14:22:17.325Z,3.16
2022-12-09T14:23:19.392Z,3.15
2022-12-09T14:24:21.107Z,3.14
2022-12-09T14:25:25.787Z,3.16
2022-12-09T14:26:38.558Z,3.15
2022-12-09T14:28:00.239Z,3.15
2022-12-09T14:29:02.197Z,3.10
2022-12-09T14:30:05.917Z,3.08
2022-12-09T14:31:09.235Z,3.08
2022-12-09T14:32:27.734Z,3.09
2022-12-09T14:33:29.546Z,3.10
2022-12-09T14:34:31.356Z,3.12
2022-12-09T14:35:33.069Z,3.07
2022-12-09T14:36:35.354Z,3.06
2022-12-09T14:37:55.861Z,3.02
2022-12-09T14:40:30.854Z,3.04
2022-12-09T14:41:40.166Z,3.03
2022-12-09T14:43:00.640Z,3.03
2022-12-09T14:44:14.464Z,3.02
2022-12-09T14:45:16.221Z,3.04
2022-12-09T14:46:24.160Z,3.05